createdAt,value
2022-12-28T00:01:23.969Z,1.53
2022-12-28T00:05:25.757Z,1.50
2022-12-28T00:09:27.557Z,1.70
2022-12-28T00:13:33.065Z,1.70
2022-12-28T00:17:34.896Z,1.40
2022-12-28T00:21:36.659Z,1.30
2022-12-28T00:25:38.356Z,1.30
2022-12-28T00:29:40.277Z,1.30
2022-12-28T00:33:42.192Z,1.17
2022-12-28T00:37:43.958Z,1.10
2022-12-28T00:41:45.763Z,0.90
2022-12-28T00:45:47.859Z,1.07
2022-12-28T00:49:49.599Z,1.00
2022-12-28T00:53:51.571Z,1.10
2022-12-28T00:57:53.306Z,0.90
2022-12-28T01:01:55.232Z,1.17
2022-12-28T01:05:57.122Z,0.80
2022-12-28T01:09:58.979Z,1.00
2022-12-28T01:14:01.422Z,0.87
2022-12-28T01:18:03.165Z,1.20
2022-12-28T01:22:05.343Z,1.03
2022-12-28T01:26:07.337Z,1.10
2022-12-28T01:30:11.240Z,1.17
2022-12-28T01:34:13.201Z,0.97
2022-12-28T01:38:14.981Z,1.10
2022-12-28T01:42:18.556Z,1.50
2022-12-28T01:46:42.184Z,1.57
2022-12-28T01:50:43.924Z,1.93
2022-12-28T01:54:49.119Z,1.80
2022-12-28T01:58:50.881Z,2.20
2022-12-28T02:03:00.014Z,1.97
2022-12-28T02:07:01.842Z,2.20
2022-12-28T02:11:03.735Z,2.07
2022-12-28T02:15:06.124Z,1.80
2022-12-28T02:19:07.879Z,2.67
2022-12-28T02:23:30.709Z,2.00
2022-12-28T02:27:52.525Z,2.23
2022-12-28T02:32:16.234Z,2.13
2022-12-28T02:36:22.800Z,1.70
2022-12-28T02:40:35.049Z,2.23
2022-12-28T02:44:56.182Z,2.50
2022-12-28T02:49:16.530Z,2.20
2022-12-28T02:54:05.678Z,2.30
2022-12-28T02:58:27.259Z,2.60
2022-12-28T03:03:16.779Z,2.20
2022-12-28T03:08:03.773Z,3.37
2022-12-28T03:12:25.765Z,3.07
2022-12-28T03:17:04.765Z,3.20
2022-12-28T03:21:34.746Z,2.67
2022-12-28T03:25:58.637Z,2.73
2022-12-28T03:30:34.103Z,2.80
2022-12-28T03:34:36.023Z,2.23
2022-12-28T03:39:06.388Z,2.10
2022-12-28T03:43:30.339Z,2.10
2022-12-28T03:47:32.071Z,1.83
2022-12-28T03:51:33.864Z,2.43
2022-12-28T03:55:37.929Z,2.70
2022-12-28T03:59:39.729Z,2.37
2022-12-28T04:03:41.817Z,2.43
2022-12-28T04:07:43.962Z,2.47
2022-12-28T04:11:45.703Z,2.23
2022-12-28T04:16:02.216Z,1.20
2022-12-28T04:20:05.331Z,0.70
2022-12-28T04:24:07.260Z,0.40
2022-12-28T04:28:09.113Z,0.47
2022-12-28T04:32:10.889Z,0.47
2022-12-28T04:36:16.895Z,0.47
2022-12-28T04:40:18.650Z,0.47
2022-12-28T04:44:20.434Z,0.33
2022-12-28T04:48:22.110Z,1.40
2022-12-28T04:52:23.935Z,1.70
2022-12-28T04:56:26.316Z,1.83
2022-12-28T05:00:28.160Z,1.80
2022-12-28T05:04:29.934Z,1.30
2022-12-28T05:08:32.516Z,1.67
2022-12-28T05:12:34.334Z,2.10
2022-12-28T05:16:36.165Z,1.80
2022-12-28T05:20:43.882Z,1.97
2022-12-28T05:24:51.773Z,2.10
2022-12-28T05:28:53.549Z,1.80
2022-12-28T05:32:55.499Z,1.73
2022-12-28T05:36:57.318Z,2.20
2022-12-28T05:41:07.381Z,2.00
2022-12-28T05:45:12.547Z,2.07
2022-12-28T05:49:18.561Z,1.77
2022-12-28T05:53:20.318Z,2.00
2022-12-28T05:57:22.071Z,2.00
2022-12-28T06:01:26.394Z,2.30
2022-12-28T06:05:28.186Z,2.30
2022-12-28T06:09:30.062Z,2.27
2022-12-28T06:13:32.385Z,1.67
2022-12-28T06:17:36.415Z,2.57
2022-12-28T06:21:39.733Z,2.27
2022-12-28T06:25:41.653Z,1.13
2022-12-28T06:29:46.471Z,0.70
2022-12-28T06:33:49.119Z,0.77
2022-12-28T06:37:50.919Z,0.57
2022-12-28T06:41:52.691Z,0.70
2022-12-28T06:45:58.189Z,0.87
2022-12-28T06:50:00.080Z,0.63
2022-12-28T06:54:02.232Z,0.70
2022-12-28T06:58:04.009Z,0.67
2022-12-28T07:02:05.911Z,0.80
2022-12-28T07:06:07.875Z,0.70
2022-12-28T07:10:09.814Z,0.80
2022-12-28T07:14:11.830Z,0.60
2022-12-28T07:18:13.602Z,0.90
2022-12-28T07:22:15.509Z,0.80
2022-12-28T07:26:22.288Z,0.90
2022-12-28T07:30:24.124Z,0.87
2022-12-28T07:34:26.139Z,1.00
2022-12-28T07:38:27.838Z,0.83
2022-12-28T07:42:30.475Z,0.63
2022-12-28T07:46:33.988Z,0.50
2022-12-28T07:50:37.980Z,0.70
2022-12-28T07:54:40.176Z,0.80
2022-12-28T08:02:42.643Z,0.87
2022-12-28T08:06:45.363Z,0.80
2022-12-28T08:10:47.082Z,1.20
2022-12-28T08:14:48.869Z,1.20
2022-12-28T08:18:50.812Z,1.07
2022-12-28T08:22:52.647Z,0.97
2022-12-28T08:26:54.428Z,1.10
2022-12-28T08:30:56.239Z,1.20
2022-12-28T08:34:58.167Z,1.30
2022-12-28T08:39:00.940Z,1.30
2022-12-28T08:43:02.703Z,1.00
2022-12-28T08:47:05.012Z,0.87
2022-12-28T08:51:16.171Z,1.40
2022-12-28T08:55:17.915Z,1.23
2022-12-28T08:59:19.925Z,1.27
2022-12-28T09:03:21.710Z,1.37
2022-12-28T09:07:23.477Z,1.13
2022-12-28T09:11:25.295Z,1.30
2022-12-28T09:15:27.033Z,1.80
2022-12-28T09:19:28.803Z,1.20
2022-12-28T09:23:30.576Z,1.20
2022-12-28T09:27:32.392Z,0.90
2022-12-28T09:31:37.042Z,0.70
2022-12-28T09:35:38.954Z,0.80
2022-12-28T09:39:40.681Z,0.70
2022-12-28T09:43:42.444Z,0.90
2022-12-28T09:47:52.904Z,0.87
2022-12-28T09:52:13.631Z,0.77
2022-12-28T09:56:30.372Z,0.90
2022-12-28T10:00:48.198Z,0.70
2022-12-28T10:04:50.432Z,0.80
2022-12-28T10:08:57.347Z,1.40
2022-12-28T10:13:21.556Z,0.87
2022-12-28T10:17:30.593Z,0.70
2022-12-28T10:21:33.360Z,0.97
2022-12-28T10:25:35.265Z,0.80
2022-12-28T10:29:37.034Z,0.87
2022-12-28T10:33:41.507Z,0.90
2022-12-28T10:37:43.636Z,0.90
2022-12-28T10:41:45.613Z,0.80
2022-12-28T10:45:49.817Z,1.00
2022-12-28T10:54:27.987Z,0.90
2022-12-28T10:58:33.789Z,0.70
2022-12-28T11:02:36.214Z,0.80
2022-12-28T11:06:57.519Z,0.83
2022-12-28T11:10:59.485Z,1.07
2022-12-28T11:15:04.305Z,0.70
2022-12-28T11:19:06.240Z,0.90
2022-12-28T11:23:08.932Z,0.83
2022-12-28T11:27:16.070Z,1.50
2022-12-28T11:31:45.093Z,1.00
2022-12-28T11:35:46.885Z,0.80
2022-12-28T11:39:50.847Z,0.70
2022-12-28T11:44:04.694Z,0.80
2022-12-28T11:48:43.850Z,0.77
2022-12-28T11:52:47.399Z,0.80
2022-12-28T11:56:52.215Z,0.60
2022-12-28T12:00:54.118Z,0.70
2022-12-28T12:04:56.100Z,0.80
2022-12-28T12:08:57.892Z,0.90
2022-12-28T12:13:01.115Z,1.07
2022-12-28T12:17:07.439Z,0.80
2022-12-28T12:21:15.511Z,0.80
2022-12-28T12:25:25.027Z,0.90
2022-12-28T12:29:49.450Z,0.90
2022-12-28T12:33:51.420Z,0.90
2022-12-28T12:38:20.007Z,0.80
2022-12-28T12:43:10.828Z,0.77
2022-12-28T12:47:56.883Z,0.77
2022-12-28T12:52:31.531Z,0.90
2022-12-28T12:56:52.064Z,1.07
2022-12-28T13:01:38.304Z,0.80
2022-12-28T13:05:42.929Z,0.80
2022-12-28T13:09:44.836Z,1.50
2022-12-28T13:13:49.414Z,0.97
2022-12-28T13:18:44.113Z,0.80
2022-12-28T13:22:31.138Z,0.90
2022-12-28T13:26:35.524Z,1.10
2022-12-28T13:30:37.513Z,1.03
2022-12-28T13:34:41.853Z,0.90
2022-12-28T13:38:43.696Z,0.73
2022-12-28T13:43:17.545Z,1.23
2022-12-28T13:47:29.925Z,1.97
2022-12-28T13:51:32.398Z,1.53
2022-12-28T13:55:55.597Z,1.27
2022-12-28T13:59:57.343Z,0.97
2022-12-28T14:04:42.442Z,0.87
2022-12-28T14:08:29.120Z,1.10
2022-12-28T14:12:31.137Z,0.80
2022-12-28T14:16:36.044Z,1.10
2022-12-28T14:20:52.415Z,1.10
2022-12-28T14:25:10.735Z,1.33
2022-12-28T14:29:18.843Z,0.97
2022-12-28T14:33:26.817Z,1.20
2022-12-28T14:37:35.564Z,0.93
2022-12-28T14:41:41.222Z,1.00
2022-12-28T14:46:07.692Z,0.70
2022-12-28T14:50:29.517Z,1.37
2022-12-28T14:54:31.384Z,1.00
2022-12-28T14:59:03.601Z,1.70
2022-12-28T15:03:22.005Z,1.33
2022-12-28T15:07:23.756Z,1.50
2022-12-28T15:11:27.810Z,1.30
2022-12-28T15:15:29.557Z,1.77
2022-12-28T15:19:31.340Z,1.37
2022-12-28T15:23:33.102Z,1.60
2022-12-28T15:27:35.515Z,1.40
2022-12-28T15:31:37.332Z,1.53
2022-12-28T15:35:39.331Z,1.67
2022-12-28T15:39:41.164Z,1.37
2022-12-28T15:43:42.989Z,1.50
2022-12-28T15:47:45.130Z,1.50
2022-12-28T15:51:49.099Z,1.00
2022-12-28T15:56:03.045Z,1.10
2022-12-28T16:00:06.153Z,1.60
2022-12-28T16:04:07.891Z,1.60
2022-12-28T16:08:09.683Z,1.80
2022-12-28T16:12:17.048Z,1.83
2022-12-28T16:16:19.118Z,1.40
2022-12-28T16:20:21.074Z,1.60
2022-12-28T16:24:22.861Z,1.63
2022-12-28T16:28:25.721Z,1.30
2022-12-28T16:32:28.368Z,1.60
2022-12-28T16:36:31.353Z,1.33
2022-12-28T16:40:34.657Z,1.30
2022-12-28T16:44:37.191Z,1.60
2022-12-28T16:48:39.911Z,1.60
2022-12-28T16:52:41.800Z,1.20
2022-12-28T16:56:45.207Z,1.40
2022-12-28T17:00:47.230Z,1.37
2022-12-28T17:04:49.144Z,1.60
2022-12-28T17:08:50.891Z,1.73
2022-12-28T17:12:52.662Z,1.60
2022-12-28T17:16:54.469Z,1.57
2022-12-28T17:21:00.483Z,1.30
2022-12-28T17:25:05.513Z,1.50
2022-12-28T17:29:07.265Z,1.70
2022-12-28T17:33:10.688Z,1.37
2022-12-28T17:37:12.574Z,1.57
2022-12-28T17:41:17.926Z,1.50
2022-12-28T17:45:19.735Z,1.30
2022-12-28T17:49:21.602Z,1.67
2022-12-28T17:53:26.634Z,1.70
2022-12-28T17:57:28.367Z,1.40
2022-12-28T18:01:30.346Z,1.53
2022-12-28T18:05:32.371Z,1.70
2022-12-28T18:09:34.402Z,1.60
2022-12-28T18:13:36.167Z,1.50
2022-12-28T18:17:38.081Z,1.67
2022-12-28T18:21:41.209Z,1.40
2022-12-28T18:25:47.357Z,1.60
2022-12-28T18:29:49.142Z,1.67
2022-12-28T18:33:51.062Z,1.50
2022-12-28T18:37:52.827Z,1.63
2022-12-28T18:41:54.829Z,1.50
2022-12-28T18:46:01.522Z,1.47
2022-12-28T18:50:04.010Z,1.40
2022-12-28T18:54:05.988Z,1.73
2022-12-28T18:58:07.749Z,1.70
2022-12-28T19:02:17.466Z,1.50
2022-12-28T19:06:21.135Z,1.70
2022-12-28T19:10:24.383Z,1.80
2022-12-28T19:14:26.345Z,1.70
2022-12-28T19:18:28.079Z,1.77
2022-12-28T19:22:30.049Z,1.87
2022-12-28T19:26:32.980Z,1.90
2022-12-28T19:30:34.806Z,1.83
2022-12-28T19:34:36.613Z,1.77
2022-12-28T19:38:38.527Z,2.37
2022-12-28T19:42:40.263Z,3.60
2022-12-28T19:46:42.074Z,3.50
2022-12-28T19:50:47.114Z,3.30
2022-12-28T19:54:49.288Z,2.07
2022-12-28T19:58:51.121Z,2.00
2022-12-28T20:02:53.231Z,2.07
2022-12-28T20:06:56.357Z,2.30
2022-12-28T20:10:58.269Z,2.00
2022-12-28T20:15:00.107Z,2.10
2022-12-28T20:19:02.061Z,1.87
2022-12-28T20:23:03.871Z,2.17
2022-12-28T20:27:05.660Z,1.90
2022-12-28T20:31:08.914Z,1.50
2022-12-28T20:35:10.850Z,1.73
2022-12-28T20:39:12.704Z,1.50
2022-12-28T20:43:23.512Z,1.60
2022-12-28T20:47:25.829Z,1.67
2022-12-28T20:51:27.735Z,1.37
2022-12-28T20:55:29.479Z,1.37
2022-12-28T20:59:31.226Z,1.50
2022-12-28T21:03:54.280Z,1.00
2022-12-28T21:08:01.978Z,1.00
2022-12-28T21:12:16.574Z,0.90
2022-12-28T21:16:24.218Z,1.10
2022-12-28T21:20:32.733Z,1.13
2022-12-28T21:24:38.892Z,0.93
2022-12-28T21:28:40.814Z,1.20
2022-12-28T21:32:42.804Z,1.00
2022-12-28T21:36:44.673Z,1.00
2022-12-28T21:41:17.273Z,1.20
2022-12-28T21:45:19.071Z,0.70
2022-12-28T21:49:21.011Z,1.10
2022-12-28T21:53:22.762Z,0.90
2022-12-28T21:57:27.549Z,1.17
2022-12-28T22:01:47.807Z,0.80
2022-12-28T22:06:04.952Z,0.90
2022-12-28T22:10:25.680Z,1.17
2022-12-28T22:14:27.445Z,1.67
2022-12-28T22:19:00.359Z,1.70
2022-12-28T22:22:50.960Z,1.10
2022-12-28T22:26:54.892Z,1.10
2022-12-28T22:30:56.659Z,0.80
2022-12-28T22:35:03.360Z,0.90
2022-12-28T22:39:05.114Z,0.90
2022-12-28T22:43:06.926Z,0.97
2022-12-28T22:47:08.762Z,0.90
2022-12-28T22:51:12.898Z,0.83
2022-12-28T22:55:14.709Z,0.70
2022-12-28T22:59:16.460Z,0.90
2022-12-28T23:03:18.260Z,0.80
2022-12-28T23:07:20.036Z,0.90
2022-12-28T23:11:36.771Z,0.97
2022-12-28T23:15:38.576Z,0.90
2022-12-28T23:20:00.151Z,1.00
2022-12-28T23:24:21.776Z,0.90
2022-12-28T23:28:23.511Z,0.90
2022-12-28T23:32:25.220Z,0.87
2022-12-28T23:36:26.998Z,0.93
2022-12-28T23:40:28.796Z,0.90
2022-12-28T23:44:30.703Z,0.80
2022-12-28T23:48:32.438Z,0.90
2022-12-28T23:52:34.256Z,0.97
2022-12-28T23:56:36.208Z,0.73
